Time;durP1;ratioP1;P1;durP2;ratioP2;P2;SDS_P1;SDS_P2;PMS_P1;PMS_P2;Temp;Humidity;BMP_temperature;BMP_pressure;BME280_temperature;BME280_humidity;BME280_pressure;Samples;Min_cycle;Max_cycle;Signal;HPM_P1;HPM_P2
2023/09/11 00:00:00;;;;;;;59.83;35.83;;;;;;;10.97;100.00;99698.16;5096375;27;20053;-72
2023/09/11 00:02:26;;;;;;;71.63;33.40;;;;;;;10.95;100.00;99689.41;5114439;27;20389;-74
2023/09/11 00:04:52;;;;;;;63.55;35.17;;;;;;;10.94;100.00;99698.41;5117565;27;20046;-75
2023/09/11 00:07:17;;;;;;;57.75;36.00;;;;;;;10.89;100.00;99690.72;5098699;27;20043;-73
2023/09/11 00:09:42;;;;;;;55.85;33.88;;;;;;;10.89;100.00;99688.03;5115363;27;20443;-73
2023/09/11 00:12:08;;;;;;;57.17;34.92;;;;;;;10.87;100.00;99702.44;5097349;27;20038;-72
2023/09/11 00:14:33;;;;;;;58.05;34.58;;;;;;;10.82;100.00;99678.78;5115249;27;20047;-72
2023/09/11 00:16:58;;;;;;;58.88;33.50;;;;;;;10.86;100.00;99690.06;5096818;27;20041;-71
2023/09/11 00:19:23;;;;;;;60.22;35.58;;;;;;;10.82;100.00;99678.78;5116693;27;20043;-73
2023/09/11 00:21:48;;;;;;;58.58;34.97;;;;;;;10.79;100.00;99678.16;5118928;27;20485;-73
2023/09/11 00:24:14;;;;;;;57.13;34.78;;;;;;;10.78;100.00;99676.44;5100741;27;20046;-71
2023/09/11 00:26:39;;;;;;;57.47;35.83;;;;;;;10.77;100.00;99691.59;5116648;27;20039;-72
2023/09/11 00:29:04;;;;;;;58.72;34.10;;;;;;;10.77;100.00;99680.06;5118925;27;20480;-72
2023/09/11 00:31:30;;;;;;;56.60;34.70;;;;;;;10.76;100.00;99667.69;5115904;27;20031;-72
2023/09/11 00:33:55;;;;;;;59.78;35.88;;;;;;;10.78;100.00;99676.44;5100896;27;20042;-71
2023/09/11 00:36:20;;;;;;;53.13;33.75;;;;;;;10.76;100.00;99671.22;5118156;27;20038;-72
2023/09/11 00:38:47;;;;;;;62.55;36.30;;;;;;;10.71;100.00;99680.53;5086143;27;20604;-71
2023/09/11 00:41:13;;;;;;;60.15;36.33;;;;;;;10.70;100.00;99669.00;5099629;27;20038;-71
2023/09/11 00:43:39;;;;;;;61.60;34.17;;;;;;;10.69;100.00;99661.97;5118375;27;20050;-72
2023/09/11 00:46:05;;;;;;;66.75;35.80;;;;;;;10.68;100.00;99667.41;5096227;27;20746;-71
2023/09/11 00:48:31;;;;;;;54.92;33.78;;;;;;;10.66;100.00;99664.84;5099201;27;20054;-71
2023/09/11 00:50:57;;;;;;;57.80;35.65;;;;;;;10.65;100.00;99659.63;5099636;27;20409;-70
2023/09/11 00:53:23;;;;;;;53.42;32.00;;;;;;;10.62;100.00;99676.69;5117934;27;20497;-71
2023/09/11 00:55:48;;;;;;;53.83;35.28;;;;;;;10.61;100.00;99652.81;5100389;27;20030;-73
2023/09/11 00:58:16;;;;;;;57.15;34.67;;;;;;;10.59;100.00;99655.59;5100210;27;20056;-72
2023/09/11 01:00:44;;;;;;;56.25;33.67;;;;;;;10.59;100.00;99660.06;5118566;27;20493;-70
2023/09/11 01:03:10;;;;;;;61.63;35.20;;;;;;;10.57;100.00;99651.31;5098839;27;20042;-71
2023/09/11 01:05:36;;;;;;;58.05;35.40;;;;;;;10.55;100.00;99659.41;5080232;27;20050;-71
2023/09/11 01:08:02;;;;;;;57.00;34.78;;;;;;;10.53;100.00;99659.53;5090617;27;20456;-72
2023/09/11 01:10:27;;;;;;;59.35;35.78;;;;;;;10.52;100.00;99680.97;5099540;27;20049;-71
2023/09/11 01:12:52;;;;;;;56.45;35.03;;;;;;;10.51;100.00;99657.94;5099328;27;20052;-72
2023/09/11 01:15:17;;;;;;;55.92;32.95;;;;;;;10.50;100.00;99651.75;5080554;27;20117;-69
2023/09/11 01:17:42;;;;;;;64.20;35.95;;;;;;;10.48;100.00;99653.69;5077328;27;20055;-70
2023/09/11 01:20:30;;;;;;;57.30;33.78;;;;;;;10.55;100.00;99656.75;5078177;27;20505;-73
2023/09/11 01:23:08;;;;;;;56.17;33.60;;;;;;;10.47;100.00;99648.47;5087875;27;20412;-73
2023/09/11 01:25:40;;;;;;;60.53;35.33;;;;;;;10.47;100.00;99651.13;5117213;27;20042;-76
2023/09/11 01:28:29;;;;;;;58.50;33.50;;;;;;;10.48;100.00;99650.16;5101211;27;20042;-75
2023/09/11 01:30:55;;;;;;;56.13;34.00;;;;;;;10.40;100.00;99653.34;5089527;27;20038;-75
2023/09/11 01:33:21;;;;;;;63.25;36.53;;;;;;;10.38;100.00;99657.13;5119571;27;20497;-73
2023/09/11 01:35:46;;;;;;;56.88;34.63;;;;;;;10.35;100.00;99668.84;5101520;27;20039;-71
2023/09/11 01:38:11;;;;;;;63.03;34.33;;;;;;;10.34;100.00;99647.63;5098147;27;20047;-72
2023/09/11 01:40:42;;;;;;;60.15;33.35;;;;;;;10.33;100.00;99654.75;5101433;27;20050;-75
2023/09/11 01:43:08;;;;;;;59.33;36.53;;;;;;;10.31;100.00;99651.34;5101064;27;20045;-74
2023/09/11 01:45:36;;;;;;;61.25;32.83;;;;;;;10.27;100.00;99655.16;5117832;27;20039;-72
2023/09/11 01:48:02;;;;;;;55.95;34.03;;;;;;;10.26;100.00;99650.84;5117263;27;20115;-73
2023/09/11 01:50:29;;;;;;;58.72;34.70;;;;;;;10.27;100.00;99649.84;5077781;27;20054;-68
2023/09/11 01:52:55;;;;;;;62.47;36.33;;;;;;;10.26;100.00;99649.97;5077677;27;20051;-68
2023/09/11 01:55:20;;;;;;;56.10;34.45;;;;;;;10.23;100.00;99669.69;5101594;27;20054;-67
2023/09/11 01:57:46;;;;;;;57.85;35.03;;;;;;;10.24;100.00;99649.22;5090659;27;20047;-67
2023/09/11 02:00:11;;;;;;;72.05;36.35;;;;;;;10.23;100.00;99647.53;5093253;27;20821;-69
2023/09/11 02:02:41;;;;;;;63.03;35.50;;;;;;;10.20;100.00;99643.25;5092763;27;20497;-68
2023/09/11 02:05:07;;;;;;;60.60;34.80;;;;;;;10.18;100.00;99656.69;5097524;27;20543;-68
2023/09/11 02:07:32;;;;;;;57.70;35.08;;;;;;;10.19;100.00;99647.72;5098332;27;20297;-70
2023/09/11 02:09:57;;;;;;;55.20;33.58;;;;;;;10.17;100.00;99659.41;5117032;27;20529;-69
2023/09/11 02:12:23;;;;;;;62.10;34.97;;;;;;;10.16;100.00;99649.72;5098871;27;20047;-69
2023/09/11 02:14:48;;;;;;;60.33;35.08;;;;;;;10.18;100.00;99655.81;5098858;27;20054;-68
2023/09/11 02:17:14;;;;;;;59.70;33.72;;;;;;;10.16;100.00;99641.72;5081198;27;20058;-67
2023/09/11 02:19:39;;;;;;;64.80;35.28;;;;;;;10.15;100.00;99645.38;5116678;27;20046;-67
2023/09/11 02:22:04;;;;;;;64.20;36.42;;;;;;;10.14;100.00;99649.00;5094513;27;20531;-66
2023/09/11 02:24:29;;;;;;;61.60;35.28;;;;;;;10.12;100.00;99649.09;5108482;27;20034;-66
2023/09/11 02:26:56;;;;;;;59.13;33.92;;;;;;;10.12;100.00;99657.09;5074599;27;20051;-70
2023/09/11 02:29:21;;;;;;;62.03;35.55;;;;;;;10.11;100.00;99644.72;5081395;27;20508;-75
2023/09/11 02:31:46;;;;;;;63.15;34.92;;;;;;;10.10;100.00;99643.00;5099146;27;20119;-72
2023/09/11 02:34:12;;;;;;;61.78;34.65;;;;;;;10.11;100.00;99638.53;5098638;27;20053;-72
2023/09/11 02:36:37;;;;;;;58.05;35.13;;;;;;;10.09;100.00;99661.75;5081621;27;20050;-72
2023/09/11 02:39:02;;;;;;;63.25;34.60;;;;;;;10.05;100.00;99636.28;5098410;27;20034;-72
2023/09/11 02:41:28;;;;;;;60.35;34.72;;;;;;;10.06;100.00;99636.19;5116682;27;20047;-75
2023/09/11 02:43:53;;;;;;;57.28;33.20;;;;;;;10.04;100.00;99638.13;5098236;27;20066;-73
2023/09/11 02:46:18;;;;;;;56.92;33.15;;;;;;;10.05;100.00;99693.06;5098432;27;20536;-73
2023/09/11 02:48:46;;;;;;;60.08;33.15;;;;;;;10.04;100.00;99638.13;5097901;27;20042;-73
2023/09/11 02:51:12;;;;;;;65.90;34.42;;;;;;;10.03;100.00;99630.25;5098217;27;20050;-70
2023/09/11 02:53:38;;;;;;;55.20;35.33;;;;;;;10.03;100.00;99635.56;5116557;27;20057;-70
2023/09/11 02:56:03;;;;;;;62.72;34.58;;;;;;;10.02;100.00;99639.19;5098217;27;20051;-68
2023/09/11 02:58:28;;;;;;;57.88;34.38;;;;;;;10.02;100.00;99633.84;5097458;27;20039;-70
2023/09/11 03:00:54;;;;;;;57.67;34.72;;;;;;;10.00;100.00;99636.63;5116610;27;20046;-71
2023/09/11 03:03:19;;;;;;;60.83;35.28;;;;;;;9.99;100.00;99636.72;5116293;27;20035;-70
2023/09/11 03:05:44;;;;;;;58.80;34.67;;;;;;;9.99;100.00;99634.91;5098593;27;20054;-72
2023/09/11 03:08:11;;;;;;;57.53;33.13;;;;;;;9.99;100.00;99644.72;5094131;27;20042;-71
2023/09/11 03:10:37;;;;;;;56.55;33.90;;;;;;;9.99;100.00;99639.38;5093831;27;20043;-71
2023/09/11 03:13:03;;;;;;;57.17;34.65;;;;;;;9.98;100.00;99632.34;5093232;27;20046;-72
2023/09/11 03:15:30;;;;;;;57.55;35.00;;;;;;;10.00;100.00;99644.59;5089067;27;20039;-72
2023/09/11 03:17:56;;;;;;;56.53;33.13;;;;;;;10.00;100.00;99636.63;5059007;28;20044;-72
2023/09/11 03:20:21;;;;;;;54.65;33.33;;;;;;;10.03;100.00;99636.41;5085569;27;20046;-71
2023/09/11 03:22:47;;;;;;;61.53;33.33;;;;;;;10.04;100.00;99648.78;5093634;27;20047;-71
2023/09/11 03:25:13;;;;;;;50.45;30.92;;;;;;;10.05;100.00;99639.81;5093358;27;20041;-70
2023/09/11 03:27:38;;;;;;;55.35;31.77;;;;;;;10.09;100.00;99637.78;5063867;27;20039;-71
2023/09/11 03:30:04;;;;;;;52.90;32.53;;;;;;;10.14;100.00;99633.00;5096813;27;20047;-71
2023/09/11 03:32:30;;;;;;;58.67;34.13;;;;;;;10.21;100.00;99639.63;5075966;28;20043;-72
2023/09/11 03:34:55;;;;;;;57.10;34.05;;;;;;;10.29;100.00;99642.59;5094731;27;20054;-73
2023/09/11 03:37:24;;;;;;;54.63;32.00;;;;;;;10.37;100.00;99640.28;5094060;27;20043;-72
2023/09/11 03:39:49;;;;;;;55.03;31.27;;;;;;;10.45;100.00;99658.38;5075403;28;20418;-74
2023/09/11 03:42:15;;;;;;;58.70;34.42;;;;;;;10.58;100.00;99669.03;5093963;28;20397;-74
2023/09/11 03:44:40;;;;;;;58.42;33.05;;;;;;;10.66;100.00;99643.50;5096572;28;20065;-74
2023/09/11 03:47:06;;;;;;;57.25;33.35;;;;;;;10.67;100.00;99637.22;5096973;28;20039;-71
2023/09/11 03:49:31;;;;;;;58.25;34.42;;;;;;;10.74;99.73;99643.81;5096263;27;20043;-70
2023/09/11 03:51:57;;;;;;;59.53;33.85;;;;;;;10.83;99.12;99643.16;5078895;27;20051;-71
2023/09/11 03:54:23;;;;;;;52.20;32.33;;;;;;;10.96;98.96;99635.09;5100542;27;20500;-71
2023/09/11 03:56:48;;;;;;;51.72;30.40;;;;;;;11.11;98.48;99625.97;5099842;27;20050;-71
2023/09/11 03:59:13;;;;;;;54.92;32.78;;;;;;;11.28;97.86;99611.41;5098836;27;20480;-71
2023/09/11 04:01:39;;;;;;;50.67;31.08;;;;;;;11.33;96.72;99657.25;5101034;27;20042;-71
2023/09/11 04:04:04;;;;;;;56.42;33.88;;;;;;;11.36;95.18;99613.47;5104425;27;20058;-74
2023/09/11 04:06:30;;;;;;;49.58;31.73;;;;;;;11.35;94.88;99635.78;5083561;27;20501;-72
2023/09/11 04:08:55;;;;;;;55.10;32.13;;;;;;;11.30;94.08;99633.44;5101695;27;20047;-73
2023/09/11 04:11:22;;;;;;;51.33;31.75;;;;;;;11.26;93.54;99662.22;5101622;27;20047;-73
2023/09/11 04:13:47;;;;;;;53.90;32.70;;;;;;;11.23;93.34;99635.75;5098200;27;20560;-72
2023/09/11 04:16:15;;;;;;;49.67;31.17;;;;;;;11.25;93.95;99599.13;5100512;27;20054;-72
2023/09/11 04:18:42;;;;;;;52.00;32.50;;;;;;;11.32;93.68;99628.00;5102313;27;20047;-72
2023/09/11 04:21:07;;;;;;;50.10;30.30;;;;;;;11.40;93.69;99631.78;5106656;27;20054;-74
2023/09/11 04:23:34;;;;;;;53.10;32.83;;;;;;;11.48;93.53;99618.75;5085772;27;20058;-74
2023/09/11 04:26:00;;;;;;;46.67;29.05;;;;;;;11.58;92.95;99640.25;5088211;27;20497;-74
2023/09/11 04:28:26;;;;;;;47.53;30.38;;;;;;;11.71;92.20;99634.84;5108234;27;20050;-73
2023/09/11 04:30:52;;;;;;;50.65;31.98;;;;;;;11.84;90.88;99639.16;5104300;27;20047;-73
2023/09/11 04:33:18;;;;;;;55.25;33.08;;;;;;;11.99;89.82;99645.13;5070765;27;20626;-74
2023/09/11 04:35:44;;;;;;;51.25;32.45;;;;;;;12.20;89.58;99632.78;5107538;27;20404;-71
2023/09/11 04:38:10;;;;;;;45.28;29.20;;;;;;;12.40;88.34;99633.91;5106123;27;20043;-71
2023/09/11 04:40:36;;;;;;;47.90;30.02;;;;;;;12.60;87.33;99625.13;5104769;27;20118;-73
2023/09/11 04:43:01;;;;;;;51.88;31.38;;;;;;;12.80;86.32;99631.53;5097077;27;20035;-71
2023/09/11 04:45:27;;;;;;;49.65;29.73;;;;;;;12.98;85.63;99629.22;5096965;27;20043;-71
2023/09/11 04:47:52;;;;;;;46.08;31.13;;;;;;;13.12;84.77;99620.88;5079574;27;20058;-71
2023/09/11 04:50:17;;;;;;;47.83;30.38;;;;;;;13.21;83.64;99624.66;5096698;27;20043;-71
2023/09/11 04:52:43;;;;;;;48.55;32.55;;;;;;;13.30;83.19;99613.22;5096778;27;20043;-71
2023/09/11 04:55:08;;;;;;;48.17;30.80;;;;;;;13.38;82.58;99616.94;5096665;27;20061;-71
2023/09/11 04:57:34;;;;;;;53.03;30.38;;;;;;;13.48;82.31;99622.38;5079648;27;20054;-70
2023/09/11 05:00:00;;;;;;;47.30;29.67;;;;;;;13.55;82.08;99623.53;5096490;27;20054;-71
2023/09/11 05:02:25;;;;;;;47.45;30.45;;;;;;;13.60;81.79;99631.22;5097939;27;20038;-70
2023/09/11 05:04:51;;;;;;;47.42;29.35;;;;;;;13.72;81.37;99632.84;5095904;27;20051;-69
2023/09/11 05:07:16;;;;;;;46.53;30.30;;;;;;;13.84;81.67;99628.28;5100425;27;20058;-70
2023/09/11 05:09:41;;;;;;;44.88;28.00;;;;;;;13.95;80.84;99620.19;5116960;27;20042;-71
2023/09/11 05:12:07;;;;;;;44.22;29.25;;;;;;;13.98;80.26;99630.66;5118261;27;20046;-70
2023/09/11 05:14:33;;;;;;;51.22;30.33;;;;;;;14.03;79.99;99677.50;5119763;27;20062;-71
2023/09/11 05:16:58;;;;;;;47.03;30.42;;;;;;;14.08;79.83;99626.19;5119975;27;20035;-71
2023/09/11 05:19:23;;;;;;;44.13;29.20;;;;;;;14.14;79.36;99620.28;5118190;27;20043;-71
2023/09/11 05:21:48;;;;;;;44.13;28.65;;;;;;;14.41;79.47;99623.28;5099503;27;20046;-70
2023/09/11 05:24:13;;;;;;;42.35;30.20;;;;;;;14.68;78.21;99609.25;5118436;27;20038;-71
2023/09/11 05:26:38;;;;;;;47.65;30.45;;;;;;;15.02;76.38;99612.44;5118237;27;20405;-70
2023/09/11 05:29:04;;;;;;;42.38;28.88;;;;;;;15.38;76.12;99629.75;5117995;27;20047;-71
2023/09/11 05:31:30;;;;;;;44.95;30.20;;;;;;;15.71;74.20;99598.09;5117945;27;20050;-71
2023/09/11 05:33:55;;;;;;;42.75;28.60;;;;;;;15.90;73.53;99614.22;5082069;27;20550;-72
2023/09/11 05:36:20;;;;;;;44.88;27.92;;;;;;;15.94;72.90;99594.09;5098389;27;20054;-72
2023/09/11 05:38:47;;;;;;;42.67;28.83;;;;;;;16.06;72.12;99592.09;5117641;27;20511;-72
2023/09/11 05:41:13;;;;;;;41.55;28.70;;;;;;;16.42;71.42;99593.94;5098563;27;20053;-71
2023/09/11 05:43:40;;;;;;;42.10;26.58;;;;;;;17.63;70.84;99591.78;5118732;27;20804;-70
2023/09/11 05:46:05;;;;;;;46.10;27.50;;;;;;;18.98;65.51;99583.97;5100684;27;20054;-71
2023/09/11 05:48:30;;;;;;;42.00;26.88;;;;;;;19.95;60.68;99584.09;5117623;27;20051;-71
2023/09/11 05:50:55;;;;;;;38.88;26.33;;;;;;;21.07;57.48;99581.22;5117962;27;20046;-70
2023/09/11 05:53:21;;;;;;;39.08;27.20;;;;;;;22.19;54.17;99609.56;5082525;27;20046;-70
2023/09/11 05:55:46;;;;;;;44.13;26.98;;;;;;;23.23;51.22;99593.03;5117512;27;20114;-70
2023/09/11 05:58:11;;;;;;;41.42;27.30;;;;;;;24.08;48.42;99576.69;5098936;27;20043;-71
2023/09/11 06:00:36;;;;;;;38.70;27.75;;;;;;;24.77;46.26;99560.38;5117685;27;20042;-69
2023/09/11 06:03:02;;;;;;;42.20;26.48;;;;;;;25.33;44.34;99565.63;5117569;27;20035;-70
2023/09/11 06:05:28;;;;;;;37.50;26.67;;;;;;;25.99;43.16;99560.25;5117287;27;20042;-70
2023/09/11 06:07:53;;;;;;;39.63;28.35;;;;;;;26.75;41.39;99566.00;5081058;27;20046;-71
2023/09/11 06:10:19;;;;;;;36.80;26.73;;;;;;;27.45;40.23;99556.00;5118071;27;20043;-70
2023/09/11 06:12:45;;;;;;;34.03;25.63;;;;;;;28.13;38.48;99553.38;5126916;27;20086;-70
2023/09/11 06:15:10;;;;;;;36.03;25.52;;;;;;;28.70;37.18;99557.66;5124709;27;20046;-70
2023/09/11 06:17:35;;;;;;;33.53;23.50;;;;;;;29.14;36.00;99558.41;5127443;27;20050;-71
2023/09/11 06:20:01;;;;;;;36.67;25.73;;;;;;;29.41;36.10;99545.16;5122735;27;20042;-69
2023/09/11 06:22:28;;;;;;;35.15;25.15;;;;;;;30.01;35.09;99551.44;5121274;27;20408;-70
2023/09/11 06:24:53;;;;;;;32.70;24.77;;;;;;;30.46;33.74;99553.56;5097970;27;20375;-70
2023/09/11 06:27:18;;;;;;;32.53;23.20;;;;;;;30.80;33.15;99549.94;5116470;27;20047;-71
2023/09/11 06:29:44;;;;;;;32.47;24.63;;;;;;;31.27;32.40;99549.78;5117357;27;20051;-71
2023/09/11 06:32:11;;;;;;;31.95;23.85;;;;;;;31.52;31.39;99552.19;5098316;27;20046;-71
2023/09/11 06:34:37;;;;;;;31.90;23.42;;;;;;;31.71;31.94;99550.94;5116876;27;20038;-70
2023/09/11 06:37:02;;;;;;;31.15;23.70;;;;;;;32.11;31.88;99546.06;5076914;27;20050;-70
2023/09/11 06:39:28;;;;;;;30.98;23.50;;;;;;;32.43;31.20;99548.22;5094428;27;20058;-71
2023/09/11 06:41:53;;;;;;;30.75;23.13;;;;;;;32.78;30.34;99540.47;5096185;27;20471;-71
2023/09/11 06:44:18;;;;;;;25.55;21.92;;;;;;;33.25;29.82;99544.63;5095974;27;20039;-70
2023/09/11 06:46:44;;;;;;;27.70;21.25;;;;;;;33.64;29.24;99540.59;5095885;27;20038;-70
2023/09/11 06:49:09;;;;;;;27.45;21.35;;;;;;;33.99;28.18;99537.31;5095902;27;20035;-70
2023/09/11 06:51:35;;;;;;;28.77;22.60;;;;;;;34.49;27.60;99538.81;5095440;27;20050;-70
2023/09/11 06:54:01;;;;;;;29.83;23.50;;;;;;;34.89;26.77;99527.94;5094396;27;20047;-73
2023/09/11 06:56:26;;;;;;;27.40;22.35;;;;;;;35.30;26.25;99528.09;5104742;27;20583;-70
2023/09/11 06:58:51;;;;;;;29.73;23.70;;;;;;;35.82;25.48;99524.28;5116170;27;20041;-70
2023/09/11 07:01:16;;;;;;;27.10;23.10;;;;;;;36.01;25.25;99530.94;5116476;27;20784;-70
2023/09/11 07:03:41;;;;;;;25.75;20.70;;;;;;;35.75;25.44;99534.84;5116500;27;20038;-70
2023/09/11 07:06:07;;;;;;;25.60;22.08;;;;;;;35.63;25.87;99533.13;5116194;27;20042;-71
2023/09/11 07:08:32;;;;;;;27.38;22.70;;;;;;;35.88;25.50;99529.56;5097502;27;20050;-70
2023/09/11 07:10:57;;;;;;;26.25;22.73;;;;;;;36.29;24.90;99530.38;5115912;27;20046;-71
2023/09/11 07:13:22;;;;;;;31.08;21.65;;;;;;;36.50;24.59;99524.78;5097378;27;20045;-70
2023/09/11 07:16:00;;;;;;;28.05;22.95;;;;;;;37.08;23.92;99531.50;5115912;27;20046;-71
2023/09/11 07:18:26;;;;;;;26.95;22.55;;;;;;;37.32;23.72;99553.94;5097670;27;20042;-70
2023/09/11 07:20:52;;;;;;;29.52;22.58;;;;;;;37.44;23.21;99519.09;5116215;27;20046;-70
2023/09/11 07:23:22;;;;;;;33.10;21.58;;;;;;;37.83;22.93;99553.59;5118058;27;20413;-76
2023/09/11 07:25:47;;;;;;;27.23;22.55;;;;;;;38.25;23.26;99527.91;5099520;27;20061;-76
2023/09/11 07:28:14;;;;;;;24.95;19.52;;;;;;;38.73;21.97;99534.34;5099272;27;20038;-76
2023/09/11 07:30:39;;;;;;;24.00;18.77;;;;;;;38.91;21.49;99519.66;5118572;27;20046;-76
2023/09/11 07:33:05;;;;;;;21.73;18.48;;;;;;;38.79;21.61;99516.44;5118849;27;20038;-77
2023/09/11 07:35:30;;;;;;;19.77;15.93;;;;;;;38.59;22.04;99522.28;5118489;27;20046;-76
2023/09/11 07:37:56;;;;;;;20.55;17.30;;;;;;;38.47;22.06;99515.13;5098182;27;20061;-75
2023/09/11 07:40:21;;;;;;;18.23;14.55;;;;;;;38.65;20.90;99515.50;5118342;27;20046;-78
2023/09/11 07:42:46;;;;;;;19.30;17.33;;;;;;;38.63;21.24;99509.41;5117801;27;20476;-78
2023/09/11 07:45:11;;;;;;;18.83;15.55;;;;;;;38.80;21.37;99523.69;5118465;27;20046;-77
2023/09/11 07:47:36;;;;;;;21.05;16.17;;;;;;;39.03;21.25;99516.44;5118200;27;20043;-77
2023/09/11 07:50:02;;;;;;;19.50;16.80;;;;;;;39.30;20.92;99512.97;5098500;27;20051;-76
2023/09/11 07:52:29;;;;;;;19.70;16.33;;;;;;;39.77;20.20;99526.78;5099354;27;20050;-76
2023/09/11 07:54:54;;;;;;;20.83;16.63;;;;;;;40.54;19.96;99496.34;5116652;27;20042;-75
2023/09/11 07:57:20;;;;;;;18.70;16.70;;;;;;;41.59;18.93;99499.09;5117169;27;20061;-76
2023/09/11 07:59:45;;;;;;;23.80;17.65;;;;;;;41.88;18.20;99507.03;5114524;27;20511;-76
2023/09/11 08:02:10;;;;;;;20.98;17.63;;;;;;;41.99;18.61;99497.28;5115571;27;20038;-77
2023/09/11 08:04:36;;;;;;;20.42;17.85;;;;;;;42.13;18.52;99497.16;5118061;27;20508;-78
2023/09/11 08:07:01;;;;;;;24.52;19.38;;;;;;;40.89;18.99;99496.75;5117289;27;20043;-77
2023/09/11 08:09:26;;;;;;;24.75;20.20;;;;;;;38.99;20.42;99505.06;5097359;27;20058;-77
2023/09/11 08:11:51;;;;;;;26.52;20.42;;;;;;;38.16;21.45;99499.84;5080393;27;20043;-77
2023/09/11 08:14:17;;;;;;;23.65;18.63;;;;;;;38.17;21.64;99495.13;5117305;27;20514;-75
2023/09/11 08:16:42;;;;;;;21.02;17.88;;;;;;;38.15;21.77;99518.53;5117696;27;20050;-76
2023/09/11 08:19:08;;;;;;;22.70;19.73;;;;;;;37.00;22.46;99495.97;5117608;27;20047;-76
2023/09/11 08:21:33;;;;;;;24.70;19.02;;;;;;;35.57;23.82;99447.44;5081682;27;20396;-77
2023/09/11 08:23:58;;;;;;;25.23;19.67;;;;;;;34.98;24.73;99502.50;5099270;27;20038;-78
2023/09/11 08:26:23;;;;;;;26.88;19.30;;;;;;;35.54;24.09;99486.81;5117184;27;20427;-76
2023/09/11 08:28:49;;;;;;;23.17;19.58;;;;;;;34.93;24.38;99490.28;5117536;27;20042;-76
2023/09/11 08:31:14;;;;;;;24.25;19.10;;;;;;;33.55;25.88;99489.66;5098274;27;20050;-76
2023/09/11 08:33:39;;;;;;;24.65;19.30;;;;;;;32.00;27.54;99489.09;5098620;27;20050;-77
2023/09/11 08:36:04;;;;;;;23.20;19.17;;;;;;;30.78;29.38;99487.97;5082006;27;20444;-76
2023/09/11 08:38:29;;;;;;;32.40;17.67;;;;;;;31.61;28.96;99492.81;5118442;27;20046;-75
2023/09/11 08:40:55;;;;;;;22.90;16.23;;;;;;;33.52;27.11;99496.53;5121172;27;20046;-77
2023/09/11 08:43:24;;;;;;;23.55;18.35;;;;;;;33.86;25.92;99491.59;5102616;27;20038;-74
2023/09/11 08:45:50;;;;;;;21.33;16.90;;;;;;;32.94;26.28;99488.19;5121087;27;20035;-75
2023/09/11 08:48:16;;;;;;;27.17;18.52;;;;;;;31.71;28.03;99485.63;5102634;27;20045;-77
2023/09/11 08:50:53;;;;;;;25.65;18.20;;;;;;;32.22;28.29;99497.44;5120562;27;20038;-76
2023/09/11 08:53:21;;;;;;;24.60;17.33;;;;;;;33.82;26.85;99482.16;5101813;27;20050;-79
2023/09/11 08:55:47;;;;;;;21.20;16.00;;;;;;;35.70;24.94;99471.00;5120737;27;20392;-79
2023/09/11 08:58:15;;;;;;;25.30;18.45;;;;;;;37.18;23.15;99461.16;5084398;27;20135;-75
2023/09/11 09:00:41;;;;;;;24.00;17.70;;;;;;;37.86;22.36;99480.66;5120156;27;20042;-77
2023/09/11 09:03:08;;;;;;;27.60;17.15;;;;;;;38.13;22.07;99480.97;5101692;27;20047;-77
2023/09/11 09:05:33;;;;;;;27.25;17.65;;;;;;;37.51;22.01;99478.97;5101366;27;20047;-75
2023/09/11 09:08:01;;;;;;;25.13;16.92;;;;;;;36.48;22.62;99471.44;5098300;27;20421;-77
2023/09/11 09:10:26;;;;;;;21.58;15.73;;;;;;;35.27;23.13;99467.66;5100062;27;20417;-76
2023/09/11 09:12:54;;;;;;;20.58;14.57;;;;;;;34.22;24.01;99478.00;5100190;27;20871;-77
2023/09/11 09:15:21;;;;;;;27.00;16.98;;;;;;;33.67;25.35;99475.63;5099954;27;20132;-77
2023/09/11 09:17:46;;;;;;;16.55;12.75;;;;;;;32.89;25.66;99453.06;5099384;27;20049;-77
2023/09/11 09:20:13;;;;;;;13.93;11.73;;;;;;;31.91;26.74;99473.22;5096557;27;20153;-77
2023/09/11 09:22:58;;;;;;;13.80;9.75;;;;;;;31.36;27.09;99466.53;5119711;27;20404;-80
2023/09/11 09:25:24;;;;;;;15.65;10.13;;;;;;;30.07;28.68;99472.63;5102258;27;20042;-77
2023/09/11 09:27:50;;;;;;;13.00;9.57;;;;;;;29.83;28.80;99469.84;5119902;27;20400;-80
2023/09/11 09:30:26;;;;;;;12.93;9.30;;;;;;;29.38;29.45;99463.25;5101036;27;20519;-77
2023/09/11 09:32:53;;;;;;;21.58;9.45;;;;;;;28.61;30.94;99467.66;5100910;27;20049;-77
2023/09/11 09:35:21;;;;;;;17.70;9.52;;;;;;;27.94;31.29;99472.19;5084088;27;20053;-79
2023/09/11 09:37:54;;;;;;;11.27;9.13;;;;;;;27.45;32.12;99477.44;5119456;27;20057;-76
2023/09/11 09:40:39;;;;;;;11.15;8.57;;;;;;;27.11;32.04;99470.53;5119857;27;20039;-76
2023/09/11 09:43:07;;;;;;;15.32;8.25;;;;;;;26.86;32.79;99475.09;5100827;27;20057;-75
2023/09/11 09:45:50;;;;;;;12.32;8.02;;;;;;;27.45;32.40;99473.84;5101526;27;20069;-77
2023/09/11 09:48:18;;;;;;;15.40;8.23;;;;;;;27.80;31.54;99455.88;5101463;27;20544;-77
2023/09/11 09:51:01;;;;;;;14.10;9.18;;;;;;;27.97;32.03;99475.34;5119613;27;20524;-76
2023/09/11 09:53:42;;;;;;;14.77;8.63;;;;;;;27.55;31.60;99468.75;5120601;27;20051;-78
2023/09/11 09:56:09;;;;;;;12.73;8.70;;;;;;;26.77;32.43;99477.22;5100759;27;20504;-76
2023/09/11 09:58:37;;;;;;;14.20;8.77;;;;;;;26.32;32.71;99462.69;5099588;27;20086;-76
2023/09/11 10:01:09;;;;;;;12.13;8.40;;;;;;;26.22;33.25;99462.25;5119987;27;20538;-76
2023/09/11 10:03:46;;;;;;;11.32;8.15;;;;;;;26.35;33.41;99462.25;5119979;27;20381;-76
2023/09/11 10:06:26;;;;;;;14.73;9.02;;;;;;;26.69;32.74;99460.22;5119801;27;20043;-78
2023/09/11 10:09:07;;;;;;;11.65;7.43;;;;;;;27.09;33.27;99449.91;5118988;27;20050;-77
2023/09/11 10:11:34;;;;;;;17.60;8.55;;;;;;;26.99;31.99;99455.03;5100163;27;20043;-77
2023/09/11 10:14:02;;;;;;;16.15;8.38;;;;;;;26.84;32.13;99477.19;5100769;27;20046;-78
2023/09/11 10:16:28;;;;;;;15.88;8.40;;;;;;;26.67;33.19;99468.63;5119346;27;20073;-79
2023/09/11 10:18:55;;;;;;;9.70;7.47;;;;;;;26.46;33.75;99479.03;5118974;27;20735;-79
2023/09/11 10:21:21;;;;;;;13.25;8.18;;;;;;;26.16;34.29;99462.28;5118055;27;20047;-77
2023/09/11 10:23:47;;;;;;;14.27;7.78;;;;;;;25.86;35.00;99461.91;5100518;27;20049;-78
2023/09/11 10:26:17;;;;;;;11.60;7.60;;;;;;;25.52;35.21;99428.31;5098718;27;20054;-78
2023/09/11 10:28:48;;;;;;;8.07;6.13;;;;;;;25.01;34.82;99463.56;5119017;27;20388;-77
2023/09/11 10:31:20;;;;;;;18.58;6.63;;;;;;;24.60;34.95;99469.91;5119533;27;20042;-77
2023/09/11 10:33:49;;;;;;;8.27;5.88;;;;;;;24.17;35.89;99469.25;5086365;27;20046;-78
2023/09/11 10:36:20;;;;;;;10.00;6.63;;;;;;;23.85;35.75;99473.47;5118129;27;20492;-76
2023/09/11 10:38:46;;;;;;;11.18;6.43;;;;;;;23.49;36.37;99457.25;5100398;27;20501;-77
2023/09/11 10:41:12;;;;;;;12.20;5.93;;;;;;;23.25;36.62;99456.84;5098518;27;20049;-78
2023/09/11 10:43:38;;;;;;;15.40;6.53;;;;;;;23.12;37.23;99463.84;5099742;27;20043;-76
2023/09/11 10:46:21;;;;;;;9.95;7.32;;;;;;;23.12;36.91;99465.72;5079618;27;20054;-79
2023/09/11 10:48:47;;;;;;;8.43;6.03;;;;;;;22.88;36.94;99474.25;5095091;27;20049;-76
2023/09/11 10:51:14;;;;;;;11.65;6.80;;;;;;;22.80;37.26;99473.31;5097016;27;20042;-77
2023/09/11 10:53:40;;;;;;;9.32;6.85;;;;;;;22.70;37.22;99464.59;5118289;27;20053;-79
2023/09/11 10:56:07;;;;;;;11.15;7.00;;;;;;;22.46;37.50;99448.63;5098666;27;20042;-78
2023/09/11 10:58:32;;;;;;;10.55;6.57;;;;;;;22.35;37.91;99455.41;5117044;27;20416;-79
2023/09/11 11:01:08;;;;;;;8.48;6.20;;;;;;;22.24;38.18;99463.19;5114768;27;20120;-78
2023/09/11 11:04:14;;;;;;;10.35;6.55;;;;;;;22.20;38.06;99464.63;5067598;27;20524;-77
2023/09/11 11:06:44;;;;;;;10.32;6.70;;;;;;;22.06;38.56;99463.59;5114898;27;20049;-78
2023/09/11 11:09:31;;;;;;;10.88;6.50;;;;;;;22.02;38.79;99457.66;5116550;27;20054;-77
2023/09/11 11:12:10;;;;;;;8.85;6.43;;;;;;;22.02;39.06;99457.66;5115860;27;20124;-77
2023/09/11 11:14:35;;;;;;;13.75;6.97;;;;;;;22.00;39.21;99470.63;5116901;27;20034;-79